sensor_id;sensor_type;location;lat;lon;timestamp;P1;durP1;ratioP1;P2;durP2;ratioP2
7031;SDS011;3557;48.880;8.328;2022-10-28T00:01:30;7.22;;;3.38;;
7031;SDS011;3557;48.880;8.328;2022-10-28T00:03:57;7.85;;;3.72;;
7031;SDS011;3557;48.880;8.328;2022-10-28T00:06:27;9.05;;;3.95;;
7031;SDS011;3557;48.880;8.328;2022-10-28T00:08:56;6.80;;;3.70;;
7031;SDS011;3557;48.880;8.328;2022-10-28T00:11:25;8.98;;;3.85;;
7031;SDS011;3557;48.880;8.328;2022-10-28T00:13:54;8.35;;;3.97;;
7031;SDS011;3557;48.880;8.328;2022-10-28T00:16:23;7.57;;;3.45;;
7031;SDS011;3557;48.880;8.328;2022-10-28T00:18:54;5.60;;;3.60;;
7031;SDS011;3557;48.880;8.328;2022-10-28T00:21:24;6.57;;;3.33;;
7031;SDS011;3557;48.880;8.328;2022-10-28T00:23:52;6.60;;;3.55;;
7031;SDS011;3557;48.880;8.328;2022-10-28T00:26:21;5.63;;;3.80;;
7031;SDS011;3557;48.880;8.328;2022-10-28T00:28:50;8.65;;;3.80;;
7031;SDS011;3557;48.880;8.328;2022-10-28T00:31:20;5.22;;;3.95;;
7031;SDS011;3557;48.880;8.328;2022-10-28T00:33:50;8.13;;;3.95;;
7031;SDS011;3557;48.880;8.328;2022-10-28T00:36:19;9.93;;;3.70;;
7031;SDS011;3557;48.880;8.328;2022-10-28T00:38:49;7.00;;;3.30;;
7031;SDS011;3557;48.880;8.328;2022-10-28T00:41:19;6.68;;;3.70;;
7031;SDS011;3557;48.880;8.328;2022-10-28T00:43:49;6.78;;;3.60;;
7031;SDS011;3557;48.880;8.328;2022-10-28T00:46:20;7.82;;;3.75;;
7031;SDS011;3557;48.880;8.328;2022-10-28T00:48:55;10.10;;;3.97;;
7031;SDS011;3557;48.880;8.328;2022-10-28T00:51:28;7.93;;;3.92;;
7031;SDS011;3557;48.880;8.328;2022-10-28T00:53:59;9.52;;;3.80;;
7031;SDS011;3557;48.880;8.328;2022-10-28T00:56:27;6.25;;;3.58;;
7031;SDS011;3557;48.880;8.328;2022-10-28T00:58:59;9.27;;;3.55;;
7031;SDS011;3557;48.880;8.328;2022-10-28T01:01:29;5.75;;;3.58;;
7031;SDS011;3557;48.880;8.328;2022-10-28T01:03:56;5.20;;;3.28;;
7031;SDS011;3557;48.880;8.328;2022-10-28T01:06:24;6.05;;;3.15;;
7031;SDS011;3557;48.880;8.328;2022-10-28T01:08:54;7.78;;;3.47;;
7031;SDS011;3557;48.880;8.328;2022-10-28T01:11:25;8.85;;;3.67;;
7031;SDS011;3557;48.880;8.328;2022-10-28T01:14:17;8.05;;;3.38;;
7031;SDS011;3557;48.880;8.328;2022-10-28T01:17:00;7.50;;;3.40;;
7031;SDS011;3557;48.880;8.328;2022-10-28T01:19:52;4.88;;;3.33;;
7031;SDS011;3557;48.880;8.328;2022-10-28T01:22:46;8.95;;;3.22;;
7031;SDS011;3557;48.880;8.328;2022-10-28T01:31:39;7.38;;;3.63;;
7031;SDS011;3557;48.880;8.328;2022-10-28T01:34:10;6.35;;;3.75;;
7031;SDS011;3557;48.880;8.328;2022-10-28T01:36:49;5.28;;;2.80;;
7031;SDS011;3557;48.880;8.328;2022-10-28T01:39:25;10.75;;;3.47;;
7031;SDS011;3557;48.880;8.328;2022-10-28T01:41:59;4.93;;;2.85;;
7031;SDS011;3557;48.880;8.328;2022-10-28T01:44:38;6.00;;;3.03;;
7031;SDS011;3557;48.880;8.328;2022-10-28T01:47:13;7.75;;;2.97;;
7031;SDS011;3557;48.880;8.328;2022-10-28T01:49:46;6.22;;;3.13;;
7031;SDS011;3557;48.880;8.328;2022-10-28T01:52:18;6.55;;;3.15;;
7031;SDS011;3557;48.880;8.328;2022-10-28T01:54:52;4.68;;;3.17;;
7031;SDS011;3557;48.880;8.328;2022-10-28T01:57:24;5.03;;;3.28;;
7031;SDS011;3557;48.880;8.328;2022-10-28T01:59:53;11.73;;;3.70;;
7031;SDS011;3557;48.880;8.328;2022-10-28T02:02:22;9.02;;;3.25;;
7031;SDS011;3557;48.880;8.328;2022-10-28T02:04:50;7.35;;;2.97;;
7031;SDS011;3557;48.880;8.328;2022-10-28T02:07:17;11.27;;;3.22;;
7031;SDS011;3557;48.880;8.328;2022-10-28T02:09:50;7.43;;;3.08;;
7031;SDS011;3557;48.880;8.328;2022-10-28T02:12:29;3.72;;;2.70;;
7031;SDS011;3557;48.880;8.328;2022-10-28T02:15:06;9.82;;;3.20;;
7031;SDS011;3557;48.880;8.328;2022-10-28T02:18:03;10.15;;;3.20;;
7031;SDS011;3557;48.880;8.328;2022-10-28T02:20:47;6.65;;;3.10;;
7031;SDS011;3557;48.880;8.328;2022-10-28T02:23:26;6.28;;;3.08;;
7031;SDS011;3557;48.880;8.328;2022-10-28T02:26:06;6.28;;;3.20;;
7031;SDS011;3557;48.880;8.328;2022-10-28T02:28:41;7.55;;;3.08;;
7031;SDS011;3557;48.880;8.328;2022-10-28T02:31:17;5.78;;;2.88;;
7031;SDS011;3557;48.880;8.328;2022-10-28T02:33:53;7.30;;;3.13;;
7031;SDS011;3557;48.880;8.328;2022-10-28T02:36:24;9.98;;;3.05;;
7031;SDS011;3557;48.880;8.328;2022-10-28T02:38:56;6.97;;;3.00;;
7031;SDS011;3557;48.880;8.328;2022-10-28T02:41:27;7.15;;;2.88;;
7031;SDS011;3557;48.880;8.328;2022-10-28T02:44:00;6.70;;;3.00;;
7031;SDS011;3557;48.880;8.328;2022-10-28T02:46:32;7.47;;;2.90;;
7031;SDS011;3557;48.880;8.328;2022-10-28T02:49:06;10.45;;;3.03;;
7031;SDS011;3557;48.880;8.328;2022-10-28T02:51:37;5.32;;;3.08;;
7031;SDS011;3557;48.880;8.328;2022-10-28T02:54:09;5.85;;;3.15;;
7031;SDS011;3557;48.880;8.328;2022-10-28T02:56:39;9.10;;;3.20;;
7031;SDS011;3557;48.880;8.328;2022-10-28T02:59:12;6.28;;;3.25;;
7031;SDS011;3557;48.880;8.328;2022-10-28T03:01:39;5.70;;;2.75;;
7031;SDS011;3557;48.880;8.328;2022-10-28T03:04:08;7.18;;;2.97;;
7031;SDS011;3557;48.880;8.328;2022-10-28T03:06:35;3.40;;;2.85;;
7031;SDS011;3557;48.880;8.328;2022-10-28T03:09:02;4.18;;;2.75;;
7031;SDS011;3557;48.880;8.328;2022-10-28T03:11:29;7.25;;;2.80;;
7031;SDS011;3557;48.880;8.328;2022-10-28T03:13:56;6.15;;;2.97;;
7031;SDS011;3557;48.880;8.328;2022-10-28T03:16:23;6.70;;;3.38;;
7031;SDS011;3557;48.880;8.328;2022-10-28T03:18:51;11.43;;;3.28;;
7031;SDS011;3557;48.880;8.328;2022-10-28T03:21:20;7.68;;;2.97;;
7031;SDS011;3557;48.880;8.328;2022-10-28T03:23:47;4.10;;;2.40;;
7031;SDS011;3557;48.880;8.328;2022-10-28T03:26:14;7.90;;;2.90;;
7031;SDS011;3557;48.880;8.328;2022-10-28T03:28:41;7.88;;;2.95;;
7031;SDS011;3557;48.880;8.328;2022-10-28T03:31:08;9.88;;;3.83;;
7031;SDS011;3557;48.880;8.328;2022-10-28T03:33:35;5.63;;;3.40;;
7031;SDS011;3557;48.880;8.328;2022-10-28T03:36:02;10.35;;;2.90;;
7031;SDS011;3557;48.880;8.328;2022-10-28T03:38:31;5.40;;;3.00;;
7031;SDS011;3557;48.880;8.328;2022-10-28T03:40:58;8.73;;;2.95;;
7031;SDS011;3557;48.880;8.328;2022-10-28T03:43:25;6.18;;;2.92;;
7031;SDS011;3557;48.880;8.328;2022-10-28T03:45:52;8.10;;;3.10;;
7031;SDS011;3557;48.880;8.328;2022-10-28T03:48:19;5.93;;;3.20;;
7031;SDS011;3557;48.880;8.328;2022-10-28T03:50:46;6.30;;;3.20;;
7031;SDS011;3557;48.880;8.328;2022-10-28T03:53:17;4.25;;;3.00;;
7031;SDS011;3557;48.880;8.328;2022-10-28T03:55:51;7.95;;;3.00;;
7031;SDS011;3557;48.880;8.328;2022-10-28T03:58:18;5.32;;;3.30;;
7031;SDS011;3557;48.880;8.328;2022-10-28T04:00:46;3.58;;;2.58;;
7031;SDS011;3557;48.880;8.328;2022-10-28T04:03:14;7.30;;;3.10;;
7031;SDS011;3557;48.880;8.328;2022-10-28T04:05:41;8.80;;;2.97;;
7031;SDS011;3557;48.880;8.328;2022-10-28T04:08:08;6.50;;;3.10;;
7031;SDS011;3557;48.880;8.328;2022-10-28T04:10:35;6.80;;;3.13;;
7031;SDS011;3557;48.880;8.328;2022-10-28T04:13:04;8.35;;;3.33;;
7031;SDS011;3557;48.880;8.328;2022-10-28T04:15:32;9.93;;;3.45;;
7031;SDS011;3557;48.880;8.328;2022-10-28T04:17:59;8.75;;;3.38;;
7031;SDS011;3557;48.880;8.328;2022-10-28T04:20:26;6.85;;;2.92;;
7031;SDS011;3557;48.880;8.328;2022-10-28T04:22:54;8.32;;;2.92;;
7031;SDS011;3557;48.880;8.328;2022-10-28T04:25:22;8.98;;;2.47;;
7031;SDS011;3557;48.880;8.328;2022-10-28T04:27:50;13.93;;;2.60;;
7031;SDS011;3557;48.880;8.328;2022-10-28T04:30:19;7.65;;;2.50;;
7031;SDS011;3557;48.880;8.328;2022-10-28T04:32:46;11.90;;;3.00;;
7031;SDS011;3557;48.880;8.328;2022-10-28T04:35:13;6.30;;;3.25;;
7031;SDS011;3557;48.880;8.328;2022-10-28T04:37:40;11.38;;;3.17;;
7031;SDS011;3557;48.880;8.328;2022-10-28T04:40:08;12.52;;;2.90;;
7031;SDS011;3557;48.880;8.328;2022-10-28T04:42:36;6.32;;;2.60;;
7031;SDS011;3557;48.880;8.328;2022-10-28T04:45:03;4.72;;;2.60;;
7031;SDS011;3557;48.880;8.328;2022-10-28T04:47:32;5.07;;;2.50;;
7031;SDS011;3557;48.880;8.328;2022-10-28T04:49:59;7.22;;;2.72;;
7031;SDS011;3557;48.880;8.328;2022-10-28T04:52:27;7.80;;;2.90;;
7031;SDS011;3557;48.880;8.328;2022-10-28T04:54:54;6.55;;;3.38;;
7031;SDS011;3557;48.880;8.328;2022-10-28T04:57:21;9.73;;;3.47;;
7031;SDS011;3557;48.880;8.328;2022-10-28T04:59:48;8.10;;;3.55;;
7031;SDS011;3557;48.880;8.328;2022-10-28T05:02:15;7.70;;;3.17;;
7031;SDS011;3557;48.880;8.328;2022-10-28T05:04:43;8.73;;;3.40;;
7031;SDS011;3557;48.880;8.328;2022-10-28T05:07:10;6.05;;;3.20;;
7031;SDS011;3557;48.880;8.328;2022-10-28T05:09:37;8.65;;;3.50;;
7031;SDS011;3557;48.880;8.328;2022-10-28T05:12:05;6.85;;;3.50;;
7031;SDS011;3557;48.880;8.328;2022-10-28T05:14:32;6.35;;;3.63;;
7031;SDS011;3557;48.880;8.328;2022-10-28T05:16:59;12.15;;;3.30;;
7031;SDS011;3557;48.880;8.328;2022-10-28T05:19:26;5.13;;;2.58;;
7031;SDS011;3557;48.880;8.328;2022-10-28T05:21:54;16.83;;;3.20;;
7031;SDS011;3557;48.880;8.328;2022-10-28T05:24:21;8.38;;;3.20;;
7031;SDS011;3557;48.880;8.328;2022-10-28T05:26:49;5.50;;;3.35;;
7031;SDS011;3557;48.880;8.328;2022-10-28T05:29:15;7.50;;;3.75;;
7031;SDS011;3557;48.880;8.328;2022-10-28T05:31:43;10.93;;;3.80;;
7031;SDS011;3557;48.880;8.328;2022-10-28T05:34:10;8.50;;;4.07;;
7031;SDS011;3557;48.880;8.328;2022-10-28T05:36:38;8.65;;;3.40;;
7031;SDS011;3557;48.880;8.328;2022-10-28T05:39:06;5.30;;;3.42;;
7031;SDS011;3557;48.880;8.328;2022-10-28T05:41:33;12.27;;;3.00;;
7031;SDS011;3557;48.880;8.328;2022-10-28T05:44:00;8.32;;;3.25;;
7031;SDS011;3557;48.880;8.328;2022-10-28T05:46:28;4.65;;;2.90;;
7031;SDS011;3557;48.880;8.328;2022-10-28T05:48:55;8.52;;;2.83;;
7031;SDS011;3557;48.880;8.328;2022-10-28T05:51:22;6.50;;;3.65;;
7031;SDS011;3557;48.880;8.328;2022-10-28T05:53:49;15.55;;;4.40;;
7031;SDS011;3557;48.880;8.328;2022-10-28T05:56:18;7.15;;;3.50;;
7031;SDS011;3557;48.880;8.328;2022-10-28T05:58:45;6.72;;;3.75;;
7031;SDS011;3557;48.880;8.328;2022-10-28T06:01:13;10.88;;;3.95;;
7031;SDS011;3557;48.880;8.328;2022-10-28T06:03:41;8.45;;;3.13;;
7031;SDS011;3557;48.880;8.328;2022-10-28T06:06:08;8.27;;;4.10;;
7031;SDS011;3557;48.880;8.328;2022-10-28T06:08:35;10.30;;;4.00;;
7031;SDS011;3557;48.880;8.328;2022-10-28T06:11:02;9.85;;;3.83;;
7031;SDS011;3557;48.880;8.328;2022-10-28T06:13:31;6.07;;;3.53;;
7031;SDS011;3557;48.880;8.328;2022-10-28T06:15:57;6.05;;;2.97;;
7031;SDS011;3557;48.880;8.328;2022-10-28T06:18:24;5.35;;;3.00;;
7031;SDS011;3557;48.880;8.328;2022-10-28T06:20:52;8.30;;;3.47;;
7031;SDS011;3557;48.880;8.328;2022-10-28T06:23:20;8.55;;;3.40;;
7031;SDS011;3557;48.880;8.328;2022-10-28T06:25:48;9.90;;;3.72;;
7031;SDS011;3557;48.880;8.328;2022-10-28T06:28:16;6.15;;;3.25;;
7031;SDS011;3557;48.880;8.328;2022-10-28T06:30:44;8.70;;;3.72;;
7031;SDS011;3557;48.880;8.328;2022-10-28T06:33:11;9.18;;;3.70;;
7031;SDS011;3557;48.880;8.328;2022-10-28T06:35:38;7.43;;;3.45;;
7031;SDS011;3557;48.880;8.328;2022-10-28T06:38:05;11.20;;;3.53;;
7031;SDS011;3557;48.880;8.328;2022-10-28T06:40:32;5.50;;;3.20;;
7031;SDS011;3557;48.880;8.328;2022-10-28T06:43:00;11.18;;;3.58;;
7031;SDS011;3557;48.880;8.328;2022-10-28T06:45:29;7.40;;;3.40;;
7031;SDS011;3557;48.880;8.328;2022-10-28T06:47:58;18.25;;;4.60;;
7031;SDS011;3557;48.880;8.328;2022-10-28T06:50:28;9.60;;;3.60;;
7031;SDS011;3557;48.880;8.328;2022-10-28T06:52:56;5.40;;;3.03;;
7031;SDS011;3557;48.880;8.328;2022-10-28T06:55:23;4.93;;;3.13;;
7031;SDS011;3557;48.880;8.328;2022-10-28T06:57:50;15.77;;;7.40;;
7031;SDS011;3557;48.880;8.328;2022-10-28T07:00:18;9.30;;;4.07;;
7031;SDS011;3557;48.880;8.328;2022-10-28T07:02:49;6.90;;;3.08;;
7031;SDS011;3557;48.880;8.328;2022-10-28T07:05:19;11.00;;;3.75;;
7031;SDS011;3557;48.880;8.328;2022-10-28T07:07:47;5.30;;;3.00;;
7031;SDS011;3557;48.880;8.328;2022-10-28T07:10:14;9.15;;;2.70;;
7031;SDS011;3557;48.880;8.328;2022-10-28T07:12:41;7.78;;;3.78;;
7031;SDS011;3557;48.880;8.328;2022-10-28T07:15:09;12.90;;;5.68;;
7031;SDS011;3557;48.880;8.328;2022-10-28T07:17:36;9.77;;;3.97;;
7031;SDS011;3557;48.880;8.328;2022-10-28T07:20:04;9.10;;;4.40;;
7031;SDS011;3557;48.880;8.328;2022-10-28T07:22:33;10.35;;;5.20;;
7031;SDS011;3557;48.880;8.328;2022-10-28T07:25:00;12.75;;;5.22;;
7031;SDS011;3557;48.880;8.328;2022-10-28T07:27:27;10.35;;;4.30;;
7031;SDS011;3557;48.880;8.328;2022-10-28T07:29:55;9.95;;;4.78;;
7031;SDS011;3557;48.880;8.328;2022-10-28T07:32:22;10.57;;;4.53;;
7031;SDS011;3557;48.880;8.328;2022-10-28T07:34:49;10.52;;;4.55;;
7031;SDS011;3557;48.880;8.328;2022-10-28T07:37:16;11.27;;;4.68;;
7031;SDS011;3557;48.880;8.328;2022-10-28T07:39:44;10.38;;;4.28;;
7031;SDS011;3557;48.880;8.328;2022-10-28T07:42:11;8.98;;;4.20;;
7031;SDS011;3557;48.880;8.328;2022-10-28T07:44:38;9.50;;;4.70;;
7031;SDS011;3557;48.880;8.328;2022-10-28T07:47:06;8.35;;;3.78;;
7031;SDS011;3557;48.880;8.328;2022-10-28T07:49:33;9.48;;;3.65;;
7031;SDS011;3557;48.880;8.328;2022-10-28T07:51:59;9.23;;;5.13;;
7031;SDS011;3557;48.880;8.328;2022-10-28T07:54:26;7.10;;;5.22;;
7031;SDS011;3557;48.880;8.328;2022-10-28T07:56:57;12.10;;;4.50;;
7031;SDS011;3557;48.880;8.328;2022-10-28T07:59:24;13.32;;;5.28;;
7031;SDS011;3557;48.880;8.328;2022-10-28T08:01:51;10.95;;;5.40;;
7031;SDS011;3557;48.880;8.328;2022-10-28T08:04:19;8.68;;;5.00;;
7031;SDS011;3557;48.880;8.328;2022-10-28T08:06:46;9.95;;;5.13;;
7031;SDS011;3557;48.880;8.328;2022-10-28T08:09:13;10.98;;;5.07;;
7031;SDS011;3557;48.880;8.328;2022-10-28T08:11:41;8.02;;;4.45;;
7031;SDS011;3557;48.880;8.328;2022-10-28T08:14:09;6.97;;;4.47;;
7031;SDS011;3557;48.880;8.328;2022-10-28T08:16:36;8.57;;;4.53;;
7031;SDS011;3557;48.880;8.328;2022-10-28T08:19:03;17.15;;;5.20;;
7031;SDS011;3557;48.880;8.328;2022-10-28T08:21:31;9.57;;;4.95;;
7031;SDS011;3557;48.880;8.328;2022-10-28T08:23:58;9.07;;;3.92;;
7031;SDS011;3557;48.880;8.328;2022-10-28T08:26:25;8.55;;;4.40;;
7031;SDS011;3557;48.880;8.328;2022-10-28T08:28:52;8.38;;;3.25;;
7031;SDS011;3557;48.880;8.328;2022-10-28T08:31:21;7.45;;;3.42;;
7031;SDS011;3557;48.880;8.328;2022-10-28T08:33:48;5.63;;;3.03;;
7031;SDS011;3557;48.880;8.328;2022-10-28T08:36:15;7.10;;;3.42;;
7031;SDS011;3557;48.880;8.328;2022-10-28T08:38:42;5.80;;;2.97;;
7031;SDS011;3557;48.880;8.328;2022-10-28T08:41:21;11.40;;;3.50;;
7031;SDS011;3557;48.880;8.328;2022-10-28T08:43:59;8.98;;;3.63;;
7031;SDS011;3557;48.880;8.328;2022-10-28T08:46:57;7.97;;;3.88;;
7031;SDS011;3557;48.880;8.328;2022-10-28T08:49:35;10.10;;;3.83;;
7031;SDS011;3557;48.880;8.328;2022-10-28T08:52:10;8.07;;;3.83;;
7031;SDS011;3557;48.880;8.328;2022-10-28T08:54:48;5.97;;;3.33;;
7031;SDS011;3557;48.880;8.328;2022-10-28T08:57:19;6.70;;;3.40;;
7031;SDS011;3557;48.880;8.328;2022-10-28T09:00:00;7.63;;;3.40;;
7031;SDS011;3557;48.880;8.328;2022-10-28T09:02:35;9.90;;;3.35;;
7031;SDS011;3557;48.880;8.328;2022-10-28T09:05:17;4.78;;;2.90;;
7031;SDS011;3557;48.880;8.328;2022-10-28T09:07:48;7.88;;;3.63;;
7031;SDS011;3557;48.880;8.328;2022-10-28T09:10:17;13.32;;;3.38;;
7031;SDS011;3557;48.880;8.328;2022-10-28T09:13:05;10.30;;;3.47;;
7031;SDS011;3557;48.880;8.328;2022-10-28T09:15:44;10.32;;;3.80;;
7031;SDS011;3557;48.880;8.328;2022-10-28T09:18:24;8.30;;;3.47;;
7031;SDS011;3557;48.880;8.328;2022-10-28T09:21:17;7.88;;;3.50;;
7031;SDS011;3557;48.880;8.328;2022-10-28T09:23:51;6.65;;;3.30;;
7031;SDS011;3557;48.880;8.328;2022-10-28T09:26:27;7.53;;;3.42;;
7031;SDS011;3557;48.880;8.328;2022-10-28T09:29:08;6.15;;;3.30;;
7031;SDS011;3557;48.880;8.328;2022-10-28T09:31:51;7.32;;;4.07;;
7031;SDS011;3557;48.880;8.328;2022-10-28T09:34:27;7.20;;;3.92;;
7031;SDS011;3557;48.880;8.328;2022-10-28T09:37:03;6.97;;;4.00;;
7031;SDS011;3557;48.880;8.328;2022-10-28T09:39:40;6.45;;;3.30;;
7031;SDS011;3557;48.880;8.328;2022-10-28T09:42:10;10.18;;;3.25;;
7031;SDS011;3557;48.880;8.328;2022-10-28T09:44:45;9.65;;;3.80;;
7031;SDS011;3557;48.880;8.328;2022-10-28T09:47:15;5.10;;;2.92;;
7031;SDS011;3557;48.880;8.328;2022-10-28T09:49:49;5.50;;;3.10;;
7031;SDS011;3557;48.880;8.328;2022-10-28T09:52:21;9.15;;;3.47;;
7031;SDS011;3557;48.880;8.328;2022-10-28T09:54:51;8.15;;;3.30;;
7031;SDS011;3557;48.880;8.328;2022-10-28T09:57:20;9.30;;;3.45;;
7031;SDS011;3557;48.880;8.328;2022-10-28T09:59:52;8.57;;;3.67;;
7031;SDS011;3557;48.880;8.328;2022-10-28T10:02:23;9.98;;;3.58;;
7031;SDS011;3557;48.880;8.328;2022-10-28T10:04:56;8.48;;;3.40;;
7031;SDS011;3557;48.880;8.328;2022-10-28T10:07:26;6.40;;;2.80;;
7031;SDS011;3557;48.880;8.328;2022-10-28T10:10:03;9.70;;;2.50;;
7031;SDS011;3557;48.880;8.328;2022-10-28T10:12:37;10.35;;;3.05;;
7031;SDS011;3557;48.880;8.328;2022-10-28T10:15:05;7.28;;;3.17;;
7031;SDS011;3557;48.880;8.328;2022-10-28T10:17:51;6.43;;;2.65;;
7031;SDS011;3557;48.880;8.328;2022-10-28T10:20:21;9.82;;;2.88;;
7031;SDS011;3557;48.880;8.328;2022-10-28T10:22:48;10.85;;;2.80;;
7031;SDS011;3557;48.880;8.328;2022-10-28T10:25:23;11.43;;;3.15;;
7031;SDS011;3557;48.880;8.328;2022-10-28T10:27:55;7.10;;;2.75;;
7031;SDS011;3557;48.880;8.328;2022-10-28T10:30:27;10.48;;;2.60;;
7031;SDS011;3557;48.880;8.328;2022-10-28T10:32:57;6.55;;;3.05;;
7031;SDS011;3557;48.880;8.328;2022-10-28T10:35:26;6.38;;;3.20;;
7031;SDS011;3557;48.880;8.328;2022-10-28T10:37:56;12.27;;;3.33;;
7031;SDS011;3557;48.880;8.328;2022-10-28T10:40:26;5.97;;;3.08;;
7031;SDS011;3557;48.880;8.328;2022-10-28T10:43:13;7.88;;;3.40;;
7031;SDS011;3557;48.880;8.328;2022-10-28T10:45:49;6.68;;;2.95;;
7031;SDS011;3557;48.880;8.328;2022-10-28T10:48:18;5.68;;;2.60;;
7031;SDS011;3557;48.880;8.328;2022-10-28T10:50:47;7.88;;;3.10;;
7031;SDS011;3557;48.880;8.328;2022-10-28T10:53:17;10.48;;;2.60;;
7031;SDS011;3557;48.880;8.328;2022-10-28T10:55:48;6.90;;;2.90;;
7031;SDS011;3557;48.880;8.328;2022-10-28T10:58:19;10.88;;;3.25;;
7031;SDS011;3557;48.880;8.328;2022-10-28T11:00:49;15.15;;;3.42;;
7031;SDS011;3557;48.880;8.328;2022-10-28T11:03:20;8.27;;;3.13;;
7031;SDS011;3557;48.880;8.328;2022-10-28T11:05:53;13.68;;;3.05;;
7031;SDS011;3557;48.880;8.328;2022-10-28T11:08:33;6.63;;;2.90;;
7031;SDS011;3557;48.880;8.328;2022-10-28T11:11:03;7.68;;;2.72;;
7031;SDS011;3557;48.880;8.328;2022-10-28T11:13:34;6.93;;;2.92;;
7031;SDS011;3557;48.880;8.328;2022-10-28T11:16:02;10.43;;;2.97;;
7031;SDS011;3557;48.880;8.328;2022-10-28T11:18:37;8.57;;;3.17;;
7031;SDS011;3557;48.880;8.328;2022-10-28T11:21:13;7.70;;;3.42;;
7031;SDS011;3557;48.880;8.328;2022-10-28T11:24:13;6.88;;;2.97;;
7031;SDS011;3557;48.880;8.328;2022-10-28T11:27:07;6.20;;;2.58;;
7031;SDS011;3557;48.880;8.328;2022-10-28T11:29:45;10.60;;;2.95;;
7031;SDS011;3557;48.880;8.328;2022-10-28T11:32:22;9.55;;;2.90;;
7031;SDS011;3557;48.880;8.328;2022-10-28T11:35:04;5.55;;;2.97;;
7031;SDS011;3557;48.880;8.328;2022-10-28T11:37:53;8.65;;;3.00;;
7031;SDS011;3557;48.880;8.328;2022-10-28T11:40:32;7.00;;;2.90;;
7031;SDS011;3557;48.880;8.328;2022-10-28T11:43:10;8.23;;;2.72;;
7031;SDS011;3557;48.880;8.328;2022-10-28T11:45:48;4.40;;;2.65;;
7031;SDS011;3557;48.880;8.328;2022-10-28T11:48:39;10.45;;;3.67;;
7031;SDS011;3557;48.880;8.328;2022-10-28T11:51:26;8.07;;;2.75;;
7031;SDS011;3557;48.880;8.328;2022-10-28T11:54:15;10.80;;;2.70;;
7031;SDS011;3557;48.880;8.328;2022-10-28T11:56:57;7.07;;;2.53;;
7031;SDS011;3557;48.880;8.328;2022-10-28T11:59:43;10.55;;;2.70;;
7031;SDS011;3557;48.880;8.328;2022-10-28T12:05:24;7.22;;;2.50;;
7031;SDS011;3557;48.880;8.328;2022-10-28T12:08:00;8.13;;;3.10;;
7031;SDS011;3557;48.880;8.328;2022-10-28T12:10:52;7.78;;;2.55;;
7031;SDS011;3557;48.880;8.328;2022-10-28T12:13:36;9.32;;;2.83;;
7031;SDS011;3557;48.880;8.328;2022-10-28T12:16:13;6.07;;;2.58;;
7031;SDS011;3557;48.880;8.328;2022-10-28T12:18:49;7.97;;;2.67;;
7031;SDS011;3557;48.880;8.328;2022-10-28T12:21:22;8.35;;;2.50;;
7031;SDS011;3557;48.880;8.328;2022-10-28T12:23:55;9.15;;;2.63;;
7031;SDS011;3557;48.880;8.328;2022-10-28T12:26:30;7.90;;;2.70;;
7031;SDS011;3557;48.880;8.328;2022-10-28T12:29:02;8.15;;;2.55;;
7031;SDS011;3557;48.880;8.328;2022-10-28T12:31:36;11.25;;;2.78;;
7031;SDS011;3557;48.880;8.328;2022-10-28T12:34:10;6.63;;;2.80;;
7031;SDS011;3557;48.880;8.328;2022-10-28T12:36:44;10.38;;;3.28;;
7031;SDS011;3557;48.880;8.328;2022-10-28T12:39:16;5.80;;;2.83;;
7031;SDS011;3557;48.880;8.328;2022-10-28T12:41:53;7.40;;;2.50;;
7031;SDS011;3557;48.880;8.328;2022-10-28T12:44:25;5.63;;;2.65;;
7031;SDS011;3557;48.880;8.328;2022-10-28T12:46:56;7.90;;;2.80;;
7031;SDS011;3557;48.880;8.328;2022-10-28T12:49:34;15.10;;;3.35;;
7031;SDS011;3557;48.880;8.328;2022-10-28T12:52:14;9.23;;;2.88;;
7031;SDS011;3557;48.880;8.328;2022-10-28T12:54:52;7.68;;;2.90;;
7031;SDS011;3557;48.880;8.328;2022-10-28T12:57:25;10.00;;;3.00;;
7031;SDS011;3557;48.880;8.328;2022-10-28T12:59:57;6.25;;;2.90;;
7031;SDS011;3557;48.880;8.328;2022-10-28T13:02:31;6.47;;;2.67;;
7031;SDS011;3557;48.880;8.328;2022-10-28T13:05:04;6.38;;;3.00;;
7031;SDS011;3557;48.880;8.328;2022-10-28T13:07:39;7.78;;;3.10;;
7031;SDS011;3557;48.880;8.328;2022-10-28T13:10:23;6.55;;;2.95;;
7031;SDS011;3557;48.880;8.328;2022-10-28T13:13:06;9.27;;;2.78;;
7031;SDS011;3557;48.880;8.328;2022-10-28T13:16:08;6.53;;;2.55;;
7031;SDS011;3557;48.880;8.328;2022-10-28T13:22:18;7.25;;;2.78;;
7031;SDS011;3557;48.880;8.328;2022-10-28T13:24:57;7.20;;;2.67;;
7031;SDS011;3557;48.880;8.328;2022-10-28T13:27:38;8.70;;;2.75;;
7031;SDS011;3557;48.880;8.328;2022-10-28T13:30:14;9.05;;;3.35;;
7031;SDS011;3557;48.880;8.328;2022-10-28T13:32:43;6.00;;;3.10;;
7031;SDS011;3557;48.880;8.328;2022-10-28T13:35:11;7.15;;;2.90;;
7031;SDS011;3557;48.880;8.328;2022-10-28T13:37:47;6.00;;;2.97;;
7031;SDS011;3557;48.880;8.328;2022-10-28T13:40:19;10.40;;;2.97;;
7031;SDS011;3557;48.880;8.328;2022-10-28T13:50:12;12.05;;;2.70;;
7031;SDS011;3557;48.880;8.328;2022-10-28T13:56:10;9.77;;;3.00;;
7031;SDS011;3557;48.880;8.328;2022-10-28T13:59:21;8.20;;;2.75;;
7031;SDS011;3557;48.880;8.328;2022-10-28T14:01:59;9.93;;;3.00;;
7031;SDS011;3557;48.880;8.328;2022-10-28T14:04:41;10.02;;;2.95;;
7031;SDS011;3557;48.880;8.328;2022-10-28T14:07:20;11.35;;;2.88;;
7031;SDS011;3557;48.880;8.328;2022-10-28T14:09:52;7.10;;;2.80;;
7031;SDS011;3557;48.880;8.328;2022-10-28T14:12:27;8.25;;;2.80;;
7031;SDS011;3557;48.880;8.328;2022-10-28T14:15:01;7.15;;;2.88;;
7031;SDS011;3557;48.880;8.328;2022-10-28T14:17:44;8.15;;;3.08;;
7031;SDS011;3557;48.880;8.328;2022-10-28T14:20:21;8.43;;;3.25;;
7031;SDS011;3557;48.880;8.328;2022-10-28T14:22:58;10.68;;;2.97;;
7031;SDS011;3557;48.880;8.328;2022-10-28T14:28:48;7.13;;;2.78;;
7031;SDS011;3557;48.880;8.328;2022-10-28T14:37:29;7.05;;;2.70;;
7031;SDS011;3557;48.880;8.328;2022-10-28T14:40:30;6.38;;;3.00;;
7031;SDS011;3557;48.880;8.328;2022-10-28T14:43:04;5.78;;;2.83;;
7031;SDS011;3557;48.880;8.328;2022-10-28T14:46:04;11.07;;;3.08;;
7031;SDS011;3557;48.880;8.328;2022-10-28T14:48:48;7.90;;;2.88;;
7031;SDS011;3557;48.880;8.328;2022-10-28T14:51:18;10.38;;;3.13;;
7031;SDS011;3557;48.880;8.328;2022-10-28T14:53:50;12.80;;;3.03;;
7031;SDS011;3557;48.880;8.328;2022-10-28T14:56:22;9.77;;;2.92;;
7031;SDS011;3557;48.880;8.328;2022-10-28T14:58:51;6.57;;;3.15;;
7031;SDS011;3557;48.880;8.328;2022-10-28T15:01:22;7.15;;;3.00;;
7031;SDS011;3557;48.880;8.328;2022-10-28T15:03:55;9.93;;;3.40;;
7031;SDS011;3557;48.880;8.328;2022-10-28T15:06:30;11.85;;;3.55;;
7031;SDS011;3557;48.880;8.328;2022-10-28T15:09:04;7.22;;;3.35;;
7031;SDS011;3557;48.880;8.328;2022-10-28T15:11:40;13.85;;;3.38;;
7031;SDS011;3557;48.880;8.328;2022-10-28T15:14:11;8.95;;;3.53;;
7031;SDS011;3557;48.880;8.328;2022-10-28T15:16:45;8.98;;;3.72;;
7031;SDS011;3557;48.880;8.328;2022-10-28T15:19:13;9.32;;;3.17;;
7031;SDS011;3557;48.880;8.328;2022-10-28T15:21:57;6.95;;;3.13;;
7031;SDS011;3557;48.880;8.328;2022-10-28T15:24:28;8.57;;;3.20;;
7031;SDS011;3557;48.880;8.328;2022-10-28T15:26:55;9.18;;;3.60;;
7031;SDS011;3557;48.880;8.328;2022-10-28T15:29:23;13.57;;;3.60;;
7031;SDS011;3557;48.880;8.328;2022-10-28T15:32:08;11.52;;;3.55;;
7031;SDS011;3557;48.880;8.328;2022-10-28T15:34:40;11.10;;;3.35;;
7031;SDS011;3557;48.880;8.328;2022-10-28T15:37:08;8.50;;;3.05;;
7031;SDS011;3557;48.880;8.328;2022-10-28T15:39:43;7.80;;;3.30;;
7031;SDS011;3557;48.880;8.328;2022-10-28T15:42:27;9.93;;;3.42;;
7031;SDS011;3557;48.880;8.328;2022-10-28T15:45:01;8.30;;;2.97;;
7031;SDS011;3557;48.880;8.328;2022-10-28T15:47:30;13.65;;;3.30;;
7031;SDS011;3557;48.880;8.328;2022-10-28T15:50:02;9.90;;;3.10;;
7031;SDS011;3557;48.880;8.328;2022-10-28T15:52:46;7.53;;;2.90;;
7031;SDS011;3557;48.880;8.328;2022-10-28T15:55:27;8.00;;;3.10;;
7031;SDS011;3557;48.880;8.328;2022-10-28T15:57:57;7.55;;;2.90;;
7031;SDS011;3557;48.880;8.328;2022-10-28T16:00:29;7.40;;;3.20;;
7031;SDS011;3557;48.880;8.328;2022-10-28T16:02:58;7.85;;;3.30;;
7031;SDS011;3557;48.880;8.328;2022-10-28T16:08:16;9.23;;;3.30;;
7031;SDS011;3557;48.880;8.328;2022-10-28T16:10:48;7.85;;;2.75;;
7031;SDS011;3557;48.880;8.328;2022-10-28T16:13:20;5.60;;;2.97;;
7031;SDS011;3557;48.880;8.328;2022-10-28T16:15:54;7.55;;;3.22;;
7031;SDS011;3557;48.880;8.328;2022-10-28T16:18:29;9.35;;;3.33;;
7031;SDS011;3557;48.880;8.328;2022-10-28T16:20:58;8.07;;;2.97;;